Hastings, Michigan
Current Conditions -  °F | °C
As of 7:53 AM on Thursday 18 Dec 2014 (Local Time) from KGRR Reporting Station
Overcast Overcast  
Wind Chill: 22°   Ceiling: 2200
Heat Index: 30°   Visibility: 10mi
Dew Point: 26°   Wind: 8mph
Humidity: 85%   Direction: 290°WNW
Pressure: 30.19"   Gusts: NA
Location:  42.65°N, 85.29°W
Report Text: KGRR 181253Z 29007KT 10SM FEW014 BKN022 OVC030 M01/M03 A3019 RMK AO2 SLP235 T10111033
Loading
Personal Weather Stations






























Interactive Weather Map New forecast layout! Learn more

10-Day Weather Forecast

Advertisements
Track Severe Weather on mobile